Time;durP1;ratioP1;P1;durP2;ratioP2;P2;SDS_P1;SDS_P2;PMS_P1;PMS_P2;Temp;Humidity;BMP_temperature;BMP_pressure;BME280_temperature;BME280_humidity;BME280_pressure;Samples;Min_cycle;Max_cycle;Signal;HPM_P1;HPM_P2
2022/11/28 00:00:19;;;;;;;5.47;4.47;;;;;;;10.58;54.98;100615.50;680526;29;1056;-81
2022/11/28 00:00:40;;;;;;;5.00;4.33;;;;;;;10.63;54.68;100629.53;680648;29;1062;-81
2022/11/28 00:01:02;;;;;;;5.97;4.30;;;;;;;10.63;54.84;100619.09;683250;29;1189;-82
2022/11/28 00:01:28;;;;;;;5.80;4.30;;;;;;;10.69;54.75;100628.81;680430;29;1368;-81
2022/11/28 00:01:58;;;;;;;6.07;4.85;;;;;;;10.63;54.83;100620.84;683198;29;1333;-82
2022/11/28 00:02:18;;;;;;;6.35;4.70;;;;;;;10.67;54.92;100622.66;685636;28;1111;-81
2022/11/28 00:02:39;;;;;;;5.97;4.60;;;;;;;10.67;54.99;100620.97;680580;29;1208;-82
2022/11/28 00:03:00;;;;;;;5.35;4.63;;;;;;;10.61;54.82;100620.78;678100;29;860;-81
2022/11/28 00:03:23;;;;;;;5.13;4.53;;;;;;;10.65;54.87;100638.31;677753;29;1151;-81
2022/11/28 00:03:44;;;;;;;5.07;4.30;;;;;;;10.66;54.99;100627.03;675536;29;937;-82
2022/11/28 00:04:05;;;;;;;6.43;4.40;;;;;;;10.65;55.06;100624.38;675130;29;1282;-82
2022/11/28 00:04:26;;;;;;;6.45;4.32;;;;;;;10.68;55.15;100627.03;672739;29;1245;-81
2022/11/28 00:04:49;;;;;;;6.28;4.35;;;;;;;10.66;55.11;100628.75;677952;29;951;-82
2022/11/28 00:05:11;;;;;;;5.40;4.30;;;;;;;10.63;54.97;100613.88;675072;29;1401;-82
2022/11/28 00:05:34;;;;;;;5.70;4.68;;;;;;;10.68;54.74;100625.31;678023;29;813;-80
2022/11/28 00:05:55;;;;;;;5.18;4.50;;;;;;;10.64;54.89;100618.25;670182;29;1263;-81
2022/11/28 00:06:16;;;;;;;5.70;4.35;;;;;;;10.66;55.02;100619.19;680352;29;1284;-81
2022/11/28 00:06:44;;;;;;;5.35;4.35;;;;;;;10.66;55.15;100621.81;680331;29;1352;-81
2022/11/28 00:07:04;;;;;;;5.00;4.40;;;;;;;10.66;55.31;100628.75;682963;28;1506;-81
2022/11/28 00:07:25;;;;;;;5.35;4.40;;;;;;;10.56;55.04;100606.72;675325;29;1190;-81
2022/11/28 00:07:46;;;;;;;6.00;4.57;;;;;;;10.62;55.01;100619.94;680640;29;1064;-82
2022/11/28 00:08:06;;;;;;;6.18;4.60;;;;;;;10.61;55.09;100619.91;680395;29;1222;-82
2022/11/28 00:08:27;;;;;;;5.93;4.60;;;;;;;10.63;55.44;100611.28;680577;29;1125;-81
2022/11/28 00:08:47;;;;;;;6.38;4.68;;;;;;;10.59;55.28;100611.16;680525;29;1191;-81
2022/11/28 00:09:08;;;;;;;6.17;4.87;;;;;;;10.60;55.45;100613.81;675162;29;1268;-82
2022/11/28 00:09:29;;;;;;;6.65;4.82;;;;;;;10.58;55.41;100612.91;675508;29;835;-82
2022/11/28 00:09:51;;;;;;;6.10;4.55;;;;;;;10.64;55.56;100625.22;680714;29;795;-81
2022/11/28 00:10:12;;;;;;;7.65;4.38;;;;;;;10.60;55.44;100613.81;677701;29;1257;-81
2022/11/28 00:10:32;;;;;;;7.38;4.60;;;;;;;10.58;55.74;100619.84;680556;29;1265;-82
2022/11/28 00:10:53;;;;;;;7.43;4.90;;;;;;;10.59;55.78;100617.28;680475;29;1028;-81
2022/11/28 00:11:15;;;;;;;6.30;4.90;;;;;;;10.60;55.84;100611.19;685666;28;1153;-81
2022/11/28 00:11:38;;;;;;;5.95;4.70;;;;;;;10.62;55.74;100617.34;680633;29;1182;-82
2022/11/28 00:11:59;;;;;;;5.88;4.60;;;;;;;10.52;55.96;100615.34;677952;29;1309;-82
2022/11/28 00:12:20;;;;;;;5.80;4.70;;;;;;;10.59;55.84;100616.38;680318;29;1167;-82
2022/11/28 00:12:41;;;;;;;6.10;4.70;;;;;;;10.55;55.74;100605.88;683203;29;1138;-82
2022/11/28 00:13:01;;;;;;;5.93;4.68;;;;;;;10.59;56.03;100612.06;683285;29;933;-82
2022/11/28 00:13:22;;;;;;;5.55;4.50;;;;;;;10.56;55.79;100614.56;680499;29;1032;-81
2022/11/28 00:13:43;;;;;;;5.47;4.70;;;;;;;10.61;56.10;100615.56;677906;29;1013;-82
2022/11/28 00:14:04;;;;;;;5.80;4.80;;;;;;;10.60;56.25;100621.63;677781;29;1257;-82
2022/11/28 00:14:25;;;;;;;6.18;4.78;;;;;;;10.58;56.09;100617.22;680622;29;772;-82
2022/11/28 00:14:46;;;;;;;7.35;4.63;;;;;;;10.64;55.99;100620.84;680758;29;850;-82
2022/11/28 00:15:09;;;;;;;6.78;4.47;;;;;;;10.56;56.00;100606.72;675042;29;1293;-81
2022/11/28 00:15:30;;;;;;;7.13;4.57;;;;;;;10.56;56.31;100611.94;678066;29;819;-81
2022/11/28 00:15:58;;;;;;;6.13;4.63;;;;;;;10.53;56.42;100609.28;680602;29;1234;-81
2022/11/28 00:16:21;;;;;;;6.28;4.80;;;;;;;10.49;56.46;100616.16;680416;29;1212;-81
2022/11/28 00:16:42;;;;;;;5.95;4.53;;;;;;;10.47;56.42;100603.91;675198;29;868;-81
2022/11/28 00:17:02;;;;;;;6.68;4.70;;;;;;;10.53;56.97;100617.09;672074;29;1255;-81
2022/11/28 00:17:23;;;;;;;6.13;4.87;;;;;;;10.56;56.51;100617.16;672676;29;1129;-82
2022/11/28 00:17:44;;;;;;;6.65;4.80;;;;;;;10.54;56.73;100616.25;675444;29;849;-81
2022/11/28 00:18:05;;;;;;;7.55;5.30;;;;;;;10.52;56.63;100610.13;680368;29;1252;-82
2022/11/28 00:18:26;;;;;;;7.10;5.10;;;;;;;10.56;56.91;100619.78;675305;29;1031;-82
2022/11/28 00:18:48;;;;;;;9.63;5.07;;;;;;;10.48;56.93;100603.06;672753;29;1212;-81
2022/11/28 00:19:10;;;;;;;9.00;4.80;;;;;;;10.47;57.08;100607.41;674990;29;1171;-81
2022/11/28 00:19:31;;;;;;;8.20;4.68;;;;;;;10.45;57.20;100608.19;677974;29;891;-82
2022/11/28 00:19:52;;;;;;;5.45;4.63;;;;;;;10.47;57.37;100607.41;680561;29;1103;-82
2022/11/28 00:20:12;;;;;;;6.27;4.80;;;;;;;10.48;57.08;100608.25;680445;29;1144;-81
2022/11/28 00:20:33;;;;;;;6.70;4.90;;;;;;;10.43;57.30;100602.06;672755;29;1285;-81
2022/11/28 00:21:04;;;;;;;7.18;5.05;;;;;;;10.48;57.46;100608.25;675213;29;1447;-81
2022/11/28 00:21:25;;;;;;;6.45;4.97;;;;;;;10.39;57.64;100596.75;677805;29;1322;-81
2022/11/28 00:21:46;;;;;;;6.30;4.80;;;;;;;10.37;57.45;100598.44;675245;29;1955;-81
2022/11/28 00:22:06;;;;;;;7.00;5.15;;;;;;;10.40;57.78;100601.13;680404;29;1171;-81
2022/11/28 00:22:28;;;;;;;6.53;5.30;;;;;;;10.40;57.74;100606.34;680641;29;757;-81
2022/11/28 00:22:48;;;;;;;7.53;5.43;;;;;;;10.41;57.75;100602.91;683194;29;931;-81
2022/11/28 00:23:09;;;;;;;6.75;5.10;;;;;;;10.39;57.73;100594.16;680275;29;1191;-81
2022/11/28 00:23:30;;;;;;;6.35;4.88;;;;;;;10.38;57.99;100595.00;680508;29;1451;-81
2022/11/28 00:23:51;;;;;;;5.85;4.55;;;;;;;10.35;57.97;100594.94;680539;29;1201;-81
2022/11/28 00:24:12;;;;;;;5.70;4.38;;;;;;;10.39;57.99;100594.16;680247;29;1307;-81
2022/11/28 00:24:33;;;;;;;6.47;4.50;;;;;;;10.37;58.25;100595.84;680507;29;1360;-81
2022/11/28 00:24:54;;;;;;;5.85;4.80;;;;;;;10.39;58.09;100593.28;677967;29;940;-81
2022/11/28 00:25:15;;;;;;;6.78;4.97;;;;;;;10.38;58.49;100592.38;677692;29;1194;-81
2022/11/28 00:25:36;;;;;;;6.60;5.22;;;;;;;10.39;58.23;100596.75;677833;29;1159;-81
2022/11/28 00:26:02;;;;;;;7.78;5.38;;;;;;;10.37;58.18;100587.13;680677;29;697;-81
2022/11/28 00:26:28;;;;;;;7.97;5.20;;;;;;;10.35;58.64;100589.72;680436;29;1152;-81
2022/11/28 00:26:49;;;;;;;9.57;5.22;;;;;;;10.36;58.30;100593.19;677720;29;891;-81
2022/11/28 00:27:10;;;;;;;10.00;5.30;;;;;;;10.32;58.61;100581.78;682806;29;1123;-81
2022/11/28 00:27:33;;;;;;;10.02;5.38;;;;;;;10.35;58.64;100594.94;680545;29;1136;-81
2022/11/28 00:27:53;;;;;;;6.70;4.90;;;;;;;10.34;58.75;100587.03;680668;29;966;-81
2022/11/28 00:28:14;;;;;;;6.85;4.85;;;;;;;10.36;58.86;100586.25;685630;28;1002;-81
2022/11/28 00:28:35;;;;;;;7.17;5.10;;;;;;;10.34;58.56;100580.13;675341;29;1230;-81
2022/11/28 00:28:57;;;;;;;7.78;5.20;;;;;;;10.35;58.69;100581.88;675273;29;1162;-80
2022/11/28 00:29:18;;;;;;;7.25;4.93;;;;;;;10.36;58.23;100582.75;680227;29;1322;-81
2022/11/28 00:29:39;;;;;;;5.77;4.77;;;;;;;10.40;58.82;100590.69;679921;29;803;-81
2022/11/28 00:30:00;;;;;;;5.53;4.90;;;;;;;10.39;58.52;100586.31;680070;29;1209;-81
2022/11/28 00:30:22;;;;;;;6.30;5.20;;;;;;;10.36;58.53;100583.63;680264;29;1221;-81
2022/11/28 00:30:42;;;;;;;6.70;5.38;;;;;;;10.38;58.87;100581.09;677986;29;871;-81
2022/11/28 00:31:03;;;;;;;5.77;4.70;;;;;;;10.40;58.70;100580.25;675181;29;1222;-81
2022/11/28 00:31:27;;;;;;;5.60;4.60;;;;;;;10.43;58.87;100589.03;680412;29;987;-81
2022/11/28 00:31:47;;;;;;;6.50;4.95;;;;;;;10.44;58.84;100585.56;678023;29;808;-81
2022/11/28 00:32:08;;;;;;;6.95;5.32;;;;;;;10.40;59.08;100576.78;680213;29;1129;-81
2022/11/28 00:32:29;;;;;;;6.68;5.28;;;;;;;10.43;58.93;100583.81;674676;29;1270;-81
2022/11/28 00:32:49;;;;;;;6.47;5.20;;;;;;;10.41;58.86;100581.16;679822;29;1121;-81
2022/11/28 00:33:11;;;;;;;6.22;5.20;;;;;;;10.38;58.75;100566.28;677656;29;1368;-81
2022/11/28 00:33:32;;;;;;;7.03;5.30;;;;;;;10.48;59.21;100593.50;680485;29;1287;-81
2022/11/28 00:33:54;;;;;;;8.00;5.25;;;;;;;10.40;59.03;100575.03;677853;29;1168;-81
2022/11/28 00:34:14;;;;;;;8.25;5.20;;;;;;;10.47;59.00;100585.63;682821;29;1141;-81
2022/11/28 00:34:35;;;;;;;7.45;5.28;;;;;;;10.40;59.30;100580.25;680620;29;757;-81
2022/11/28 00:34:56;;;;;;;7.20;5.05;;;;;;;10.44;59.15;100580.34;677826;29;1056;-80
2022/11/28 00:35:16;;;;;;;7.20;5.23;;;;;;;10.46;59.09;100582.16;672399;29;1132;-81
2022/11/28 00:35:37;;;;;;;6.32;4.85;;;;;;;10.43;59.21;100583.81;680509;29;796;-81
2022/11/28 00:36:00;;;;;;;5.78;4.90;;;;;;;10.40;59.16;100575.03;685831;28;1170;-81
2022/11/28 00:36:21;;;;;;;6.45;4.88;;;;;;;10.50;59.38;100593.56;685516;28;1150;-81
2022/11/28 00:36:44;;;;;;;8.63;5.05;;;;;;;10.41;59.11;100574.22;683049;29;1850;-81
2022/11/28 00:37:04;;;;;;;8.40;5.22;;;;;;;10.48;59.36;100587.41;677621;29;1341;-80
2022/11/28 00:37:25;;;;;;;7.73;5.50;;;;;;;10.48;59.27;100580.47;680579;29;780;-80
2022/11/28 00:37:45;;;;;;;7.00;5.30;;;;;;;10.45;59.07;100571.69;680397;29;1047;-81
2022/11/28 00:38:06;;;;;;;7.13;5.28;;;;;;;10.44;59.10;100577.75;682849;29;1290;-81
2022/11/28 00:38:27;;;;;;;5.77;4.83;;;;;;;10.45;59.28;100580.38;683186;29;848;-81
2022/11/28 00:38:49;;;;;;;6.60;5.25;;;;;;;10.43;59.44;100573.38;680638;29;1478;-81
2022/11/28 00:39:10;;;;;;;6.10;4.80;;;;;;;10.41;59.22;100576.81;680382;29;1129;-81
2022/11/28 00:39:30;;;;;;;6.70;5.00;;;;;;;10.44;59.33;100581.22;680588;29;753;-81
2022/11/28 00:39:51;;;;;;;6.07;4.75;;;;;;;10.43;59.71;100578.59;680599;29;832;-81
2022/11/28 00:40:11;;;;;;;6.35;5.13;;;;;;;10.49;59.51;100584.84;680218;29;1431;-80
2022/11/28 00:40:32;;;;;;;6.50;5.00;;;;;;;10.47;59.45;100585.63;680514;29;816;-81
2022/11/28 00:41:01;;;;;;;6.97;5.25;;;;;;;10.44;59.44;100576.00;683237;29;808;-81
2022/11/28 00:41:25;;;;;;;7.35;5.32;;;;;;;10.44;59.52;100577.75;680202;29;1336;-81
2022/11/28 00:41:46;;;;;;;6.57;5.07;;;;;;;10.45;59.62;100579.50;677888;29;1891;-81
2022/11/28 00:42:06;;;;;;;7.00;5.05;;;;;;;10.45;59.47;100575.16;675078;29;1078;-81
2022/11/28 00:42:27;;;;;;;7.40;5.30;;;;;;;10.46;59.65;100583.88;677959;29;765;-81
2022/11/28 00:42:48;;;;;;;7.37;5.37;;;;;;;10.41;59.67;100570.72;677903;29;1185;-81
2022/11/28 00:43:10;;;;;;;5.72;5.10;;;;;;;10.48;59.96;100587.41;675178;29;1172;-81
2022/11/28 00:43:31;;;;;;;6.05;5.40;;;;;;;10.46;59.84;100574.34;675355;29;817;-81
2022/11/28 00:43:52;;;;;;;6.45;5.40;;;;;;;10.44;59.79;100577.75;677859;29;1300;-81
2022/11/28 00:44:13;;;;;;;7.40;5.60;;;;;;;10.41;59.82;100571.63;680210;29;1143;-81
2022/11/28 00:44:33;;;;;;;7.72;5.28;;;;;;;10.45;59.82;100582.97;680064;29;1149;-81
2022/11/28 00:44:54;;;;;;;7.55;5.40;;;;;;;10.39;59.92;100573.28;674790;29;1349;-80
2022/11/28 00:45:15;;;;;;;7.97;5.25;;;;;;;10.38;59.85;100568.91;672395;29;1257;-81
2022/11/28 00:45:35;;;;;;;7.80;5.47;;;;;;;10.40;60.19;100575.03;675325;29;861;-81
2022/11/28 00:45:56;;;;;;;8.40;5.53;;;;;;;10.41;60.19;100571.63;678022;29;698;-81
2022/11/28 00:46:18;;;;;;;7.25;5.47;;;;;;;10.40;60.11;100563.75;680370;29;991;-80
2022/11/28 00:46:39;;;;;;;7.63;5.43;;;;;;;10.40;60.16;100564.59;680434;29;882;-81
2022/11/28 00:46:59;;;;;;;7.50;5.22;;;;;;;10.43;60.02;100573.38;680838;29;801;-81
2022/11/28 00:47:20;;;;;;;7.72;5.40;;;;;;;10.41;60.13;100566.41;672355;29;1072;-81
2022/11/28 00:47:40;;;;;;;7.20;5.30;;;;;;;10.36;60.30;100560.16;675210;29;1210;-81
2022/11/28 00:48:01;;;;;;;7.05;5.38;;;;;;;10.48;60.48;100566.53;680447;29;1196;-81
2022/11/28 00:48:23;;;;;;;6.35;5.55;;;;;;;10.41;60.19;100562.88;680301;29;1288;-81
2022/11/28 00:48:44;;;;;;;6.15;5.40;;;;;;;10.39;60.32;100561.97;677877;29;855;-80
2022/11/28 00:49:05;;;;;;;6.63;5.47;;;;;;;10.36;60.57;100557.56;680168;29;1273;-81
2022/11/28 00:49:48;;;;;;;7.07;5.40;;;;;;;10.46;60.36;100582.16;680481;29;924;-81
2022/11/28 00:50:09;;;;;;;6.32;5.40;;;;;;;10.35;60.32;100558.41;679971;29;1047;-81
2022/11/28 00:50:29;;;;;;;5.80;5.20;;;;;;;10.36;60.50;100572.31;675248;29;1285;-80
2022/11/28 00:50:51;;;;;;;6.00;5.40;;;;;;;10.39;60.61;100575.03;675302;29;863;-81
2022/11/28 00:51:17;;;;;;;5.70;5.10;;;;;;;10.39;60.45;100575.03;680304;29;1351;-80
2022/11/28 00:51:38;;;;;;;7.22;5.20;;;;;;;10.33;60.73;100560.06;680541;29;915;-81
2022/11/28 00:51:58;;;;;;;7.85;5.22;;;;;;;10.33;60.52;100567.03;683086;29;1176;-81
2022/11/28 00:52:19;;;;;;;7.80;5.50;;;;;;;10.34;60.37;100569.69;680207;29;1045;-81
2022/11/28 00:52:40;;;;;;;6.40;5.60;;;;;;;10.36;60.78;100572.31;683163;29;1302;-81
2022/11/28 00:53:00;;;;;;;6.53;5.35;;;;;;;10.33;60.57;100569.63;680451;29;877;-81
2022/11/28 00:53:21;;;;;;;7.37;5.43;;;;;;;10.33;60.53;100567.91;680302;29;1144;-81
2022/11/28 00:53:43;;;;;;;8.20;5.60;;;;;;;10.33;60.82;100570.50;677909;29;1179;-82
2022/11/28 00:54:05;;;;;;;8.48;5.80;;;;;;;10.34;60.67;100567.09;677726;29;1018;-81
2022/11/28 00:54:25;;;;;;;7.78;5.70;;;;;;;10.33;60.66;100567.91;677253;29;780;-81
2022/11/28 00:54:46;;;;;;;6.30;5.60;;;;;;;10.34;60.59;100563.56;678532;29;1076;-81
2022/11/28 00:55:07;;;;;;;6.60;5.80;;;;;;;10.36;60.52;100568.00;682837;29;1361;-81
2022/11/28 00:55:27;;;;;;;6.68;5.80;;;;;;;10.33;60.57;100562.69;683158;29;1066;-81
2022/11/28 00:55:48;;;;;;;8.75;5.88;;;;;;;10.28;60.71;100559.94;680461;29;1043;-81
2022/11/28 00:56:11;;;;;;;9.63;5.75;;;;;;;10.31;60.66;100561.75;680592;29;732;-82
2022/11/28 00:56:35;;;;;;;9.50;5.72;;;;;;;10.31;60.78;100566.97;675334;29;1209;-81
2022/11/28 00:56:56;;;;;;;7.68;5.80;;;;;;;10.32;60.79;100566.13;677682;29;1265;-81
2022/11/28 00:57:17;;;;;;;8.43;6.00;;;;;;;10.34;60.72;100564.47;677589;29;1024;-81
2022/11/28 00:57:37;;;;;;;8.68;6.00;;;;;;;10.32;60.56;100566.13;680462;29;1457;-81
2022/11/28 00:57:58;;;;;;;7.72;5.80;;;;;;;10.25;60.58;100559.88;675283;29;1189;-81
2022/11/28 00:58:18;;;;;;;7.70;5.60;;;;;;;10.29;60.52;100566.06;675186;29;1015;-81
2022/11/28 00:58:49;;;;;;;8.40;5.72;;;;;;;10.29;60.70;100560.84;677869;29;1212;-81
2022/11/28 00:59:09;;;;;;;7.50;5.60;;;;;;;10.28;60.92;100556.47;672374;29;1401;-82
2022/11/28 00:59:30;;;;;;;7.50;5.20;;;;;;;10.27;60.83;100552.97;675222;29;1279;-81
2022/11/28 00:59:50;;;;;;;5.73;5.03;;;;;;;10.29;60.61;100555.63;676822;29;834;-81
2022/11/28 01:00:12;;;;;;;6.78;5.45;;;;;;;10.32;60.50;100562.66;677684;29;1371;-82
2022/11/28 01:00:34;;;;;;;7.28;5.75;;;;;;;10.37;60.67;100572.38;677792;29;1301;-82
2022/11/28 01:00:55;;;;;;;7.68;5.68;;;;;;;10.28;60.37;100562.56;680355;29;1174;-81
2022/11/28 01:01:26;;;;;;;7.68;5.30;;;;;;;10.35;60.60;100574.06;677653;29;1183;-81
2022/11/28 01:01:47;;;;;;;7.75;5.38;;;;;;;10.27;60.48;100552.97;675190;29;1919;-82
2022/11/28 01:02:08;;;;;;;6.75;5.50;;;;;;;10.31;60.64;100564.38;680137;29;1250;-82
2022/11/28 01:02:28;;;;;;;6.47;5.70;;;;;;;10.25;60.62;100553.78;675171;29;885;-82
2022/11/28 01:02:49;;;;;;;6.40;5.75;;;;;;;10.29;60.70;100558.25;680446;29;1234;-82
2022/11/28 01:03:10;;;;;;;6.78;5.90;;;;;;;10.27;60.55;100557.31;674966;29;1016;-81
2022/11/28 01:03:31;;;;;;;6.50;5.80;;;;;;;10.24;60.46;100555.53;677798;29;1104;-82
2022/11/28 01:03:53;;;;;;;6.63;5.93;;;;;;;10.25;60.43;100553.78;680419;29;931;-82
2022/11/28 01:04:16;;;;;;;6.97;5.80;;;;;;;10.21;60.63;100552.78;680363;29;1122;-82
2022/11/28 01:04:36;;;;;;;7.88;5.70;;;;;;;10.22;60.88;100551.06;680401;29;844;-82
2022/11/28 01:05:06;;;;;;;8.40;5.63;;;;;;;10.24;60.58;100558.13;677823;29;1087;-81
2022/11/28 01:05:27;;;;;;;10.13;5.90;;;;;;;10.22;60.58;100562.41;680406;29;1095;-82
2022/11/28 01:05:47;;;;;;;8.77;5.88;;;;;;;10.25;60.60;100559.00;677811;29;1140;-82
2022/11/28 01:06:10;;;;;;;9.13;5.93;;;;;;;10.27;60.77;100562.53;677601;29;1107;-81
2022/11/28 01:06:34;;;;;;;8.30;5.72;;;;;;;10.21;60.67;100562.34;683049;29;1354;-82
2022/11/28 01:06:55;;;;;;;7.72;5.50;;;;;;;10.23;60.62;100556.38;677645;29;902;-81
2022/11/28 01:07:16;;;;;;;8.30;5.70;;;;;;;10.27;60.73;100562.53;680238;29;1961;-82
2022/11/28 01:07:41;;;;;;;8.60;6.20;;;;;;;10.26;60.76;100566.88;677844;29;1196;-82
2022/11/28 01:08:01;;;;;;;8.00;5.85;;;;;;;10.23;60.93;100560.69;677917;29;781;-81
2022/11/28 01:08:22;;;;;;;7.43;5.67;;;;;;;10.20;60.59;100556.22;682890;29;1216;-82
2022/11/28 01:08:42;;;;;;;8.50;6.00;;;;;;;10.21;60.84;100557.13;680485;29;1253;-81
2022/11/28 01:09:08;;;;;;;7.85;5.90;;;;;;;10.24;60.82;100570.28;677598;29;1183;-82
2022/11/28 01:09:29;;;;;;;7.47;5.93;;;;;;;10.25;61.07;100564.22;677784;29;1195;-81
2022/11/28 01:09:49;;;;;;;7.37;5.80;;;;;;;10.20;60.61;100560.59;677820;29;1167;-80
2022/11/28 01:10:10;;;;;;;7.30;5.85;;;;;;;10.20;60.84;100553.63;677602;29;1007;-81
2022/11/28 01:10:31;;;;;;;7.20;5.63;;;;;;;10.24;60.73;100563.34;677858;29;846;-81
2022/11/28 01:10:51;;;;;;;6.53;5.50;;;;;;;10.28;60.75;100564.31;680472;29;709;-82
2022/11/28 01:11:12;;;;;;;6.63;5.50;;;;;;;10.22;60.87;100554.56;682768;29;1071;-81
2022/11/28 01:11:33;;;;;;;6.50;5.38;;;;;;;10.23;61.05;100558.97;680388;29;1041;-81
2022/11/28 01:11:54;;;;;;;6.97;5.68;;;;;;;10.21;60.90;100551.91;680352;29;1430;-82
2022/11/28 01:12:15;;;;;;;6.80;5.90;;;;;;;10.21;60.71;100546.69;680138;29;1248;-81
2022/11/28 01:12:35;;;;;;;7.10;6.00;;;;;;;10.27;60.99;100559.94;675189;29;1064;-81
2022/11/28 01:12:56;;;;;;;7.23;5.80;;;;;;;10.20;61.06;100551.00;672649;29;1037;-81
2022/11/28 01:13:16;;;;;;;6.43;5.60;;;;;;;10.21;61.03;100552.78;672526;29;1019;-81
2022/11/28 01:13:38;;;;;;;6.32;5.60;;;;;;;10.22;60.86;100553.66;677922;29;752;-81
2022/11/28 01:14:00;;;;;;;6.22;5.63;;;;;;;10.23;60.97;100560.69;677788;29;1073;-81
2022/11/28 01:14:23;;;;;;;6.47;5.70;;;;;;;10.20;60.55;100551.00;675073;29;1082;-81
2022/11/28 01:14:44;;;;;;;7.97;6.10;;;;;;;10.25;60.94;100566.81;672645;29;822;-81
2022/11/28 01:15:07;;;;;;;7.90;6.00;;;;;;;10.18;61.04;100555.31;677589;29;1329;-81
2022/11/28 01:15:28;;;;;;;6.60;5.68;;;;;;;10.18;60.78;100557.94;682999;29;1312;-81
2022/11/28 01:15:48;;;;;;;6.23;5.53;;;;;;;10.12;60.78;100548.22;677824;29;808;-81
2022/11/28 01:16:10;;;;;;;6.93;5.53;;;;;;;10.24;61.16;100568.56;680146;29;1113;-81
2022/11/28 01:16:30;;;;;;;7.70;5.70;;;;;;;10.23;60.82;100563.28;677807;29;1216;-82
2022/11/28 01:16:51;;;;;;;7.68;5.57;;;;;;;10.22;60.94;100562.41;674959;29;916;-81
2022/11/28 01:17:12;;;;;;;6.72;5.53;;;;;;;10.15;60.76;100552.66;680195;29;1134;-81
2022/11/28 01:17:32;;;;;;;6.22;5.60;;;;;;;10.14;61.04;100546.53;677705;29;1166;-82
2022/11/28 01:17:53;;;;;;;6.10;5.50;;;;;;;10.13;61.06;100546.47;680451;29;1202;-82
2022/11/28 01:18:14;;;;;;;6.13;5.53;;;;;;;10.19;60.98;100553.59;680242;29;1168;-81
2022/11/28 01:18:36;;;;;;;6.60;5.77;;;;;;;10.18;61.00;100550.09;677805;29;1151;-81
2022/11/28 01:18:56;;;;;;;6.88;5.50;;;;;;;10.17;61.25;100547.44;682942;29;1352;-81
2022/11/28 01:19:17;;;;;;;7.05;5.43;;;;;;;10.15;60.92;100545.69;682818;29;1192;-81
2022/11/28 01:19:38;;;;;;;6.53;5.40;;;;;;;10.18;60.84;100557.06;683129;29;1158;-81
2022/11/28 01:20:08;;;;;;;6.43;5.60;;;;;;;10.19;61.11;100556.22;683149;29;880;-81
2022/11/28 01:20:28;;;;;;;6.72;5.50;;;;;;;10.13;61.27;100552.59;677662;29;1240;-81
2022/11/28 01:20:49;;;;;;;7.05;5.65;;;;;;;10.20;60.99;100557.97;680223;29;1068;-81
2022/11/28 01:21:10;;;;;;;8.05;5.80;;;;;;;10.18;61.11;100552.72;680282;29;1031;-81
2022/11/28 01:21:30;;;;;;;8.63;6.00;;;;;;;10.13;60.92;100544.78;680319;29;1923;-81
2022/11/28 01:21:51;;;;;;;8.10;5.80;;;;;;;10.15;61.25;100548.28;677811;29;1062;-81
2022/11/28 01:22:11;;;;;;;6.65;5.65;;;;;;;10.20;61.08;100557.97;680165;29;1152;-82
2022/11/28 01:22:32;;;;;;;6.50;5.60;;;;;;;10.14;61.10;100546.53;677704;29;1159;-81
2022/11/28 01:22:53;;;;;;;7.20;5.93;;;;;;;10.17;61.25;100547.44;680469;29;1247;-81
2022/11/28 01:23:13;;;;;;;6.63;5.72;;;;;;;10.13;61.04;100544.78;680040;29;1146;-82
2022/11/28 01:23:34;;;;;;;8.70;5.60;;;;;;;10.22;61.12;100558.88;680425;29;918;-81
2022/11/28 01:23:55;;;;;;;8.73;5.35;;;;;;;10.18;61.00;100547.50;683124;29;796;-81
2022/11/28 01:24:16;;;;;;;9.20;5.30;;;;;;;10.19;61.01;100551.00;677564;29;1242;-81
2022/11/28 01:24:36;;;;;;;7.30;5.50;;;;;;;10.19;61.11;100553.59;675127;29;1332;-81
2022/11/28 01:24:57;;;;;;;7.28;5.50;;;;;;;10.19;61.00;100548.38;675075;29;1111;-81
2022/11/28 01:25:18;;;;;;;7.27;5.57;;;;;;;10.19;61.10;100551.88;674988;29;1289;-81
2022/11/28 01:25:38;;;;;;;7.27;5.30;;;;;;;10.19;60.92;100544.03;675154;29;1112;-81
2022/11/28 01:26:01;;;;;;;7.00;5.38;;;;;;;10.11;61.05;100542.97;670154;29;730;-81
2022/11/28 01:26:26;;;;;;;6.68;5.50;;;;;;;9.92;61.51;100545.09;674203;29;1267;-82
2022/11/28 01:26:47;;;;;;;7.47;5.82;;;;;;;9.85;61.82;100548.38;680114;29;1088;-81
2022/11/28 01:27:08;;;;;;;6.75;5.43;;;;;;;9.78;62.13;100543.81;680117;29;1199;-81
2022/11/28 01:27:28;;;;;;;6.55;5.50;;;;;;;9.73;62.29;100544.56;677756;29;1052;-81
2022/11/28 01:27:49;;;;;;;7.00;5.50;;;;;;;9.71;62.33;100548.00;677846;29;1158;-81
2022/11/28 01:28:10;;;;;;;6.95;5.50;;;;;;;9.66;62.68;100540.06;680244;29;1209;-81
2022/11/28 01:28:30;;;;;;;8.00;5.80;;;;;;;9.68;62.47;100545.28;680409;29;1306;-81
2022/11/28 01:28:52;;;;;;;7.23;5.70;;;;;;;9.70;62.41;100551.41;679999;29;1038;-81
2022/11/28 01:29:12;;;;;;;7.65;5.88;;;;;;;9.61;62.55;100533.81;677604;29;1097;-81
2022/11/28 01:29:33;;;;;;;7.30;5.50;;;;;;;9.60;62.64;100542.47;672643;29;749;-82
2022/11/28 01:29:54;;;;;;;6.47;5.40;;;;;;;9.66;62.96;100549.56;672586;29;1247;-82
2022/11/28 01:30:15;;;;;;;6.70;5.25;;;;;;;9.68;62.85;100542.69;672481;29;1025;-82
2022/11/28 01:30:35;;;;;;;6.72;5.40;;;;;;;9.59;63.06;100541.56;675111;29;1195;-82
2022/11/28 01:31:01;;;;;;;7.22;5.53;;;;;;;9.62;62.61;100547.72;677861;29;768;-82
2022/11/28 01:31:24;;;;;;;7.72;5.70;;;;;;;9.62;62.74;100550.31;674863;29;1331;-81
2022/11/28 01:31:45;;;;;;;9.10;5.80;;;;;;;9.59;63.12;100545.91;680423;29;874;-81
2022/11/28 01:32:06;;;;;;;8.65;5.75;;;;;;;9.62;63.11;100546.00;680259;29;1103;-81
2022/11/28 01:32:26;;;;;;;7.53;5.73;;;;;;;9.58;63.29;100537.22;677751;29;800;-82
2022/11/28 01:32:47;;;;;;;6.93;5.50;;;;;;;9.55;62.80;100539.75;672597;29;1478;-82
2022/11/28 01:33:08;;;;;;;6.97;5.43;;;;;;;9.59;63.35;100546.78;674861;29;1256;-81
2022/11/28 01:33:28;;;;;;;7.95;5.43;;;;;;;9.55;63.02;100534.53;677527;29;1244;-81
2022/11/28 01:33:50;;;;;;;7.70;5.73;;;;;;;9.60;62.96;100545.94;680443;29;794;-82
2022/11/28 01:34:11;;;;;;;8.43;6.00;;;;;;;9.64;63.13;100548.66;674962;29;1325;-82
2022/11/28 01:34:31;;;;;;;8.10;5.83;;;;;;;9.59;63.10;100541.56;677706;29;1203;-82
2022/11/28 01:34:52;;;;;;;7.63;5.65;;;;;;;9.54;63.14;100535.38;677906;29;709;-82
2022/11/28 01:35:13;;;;;;;7.40;5.50;;;;;;;9.58;63.18;100537.22;680135;29;1254;-81
2022/11/28 01:35:33;;;;;;;7.57;5.70;;;;;;;9.58;63.08;100545.03;683056;29;816;-82
2022/11/28 01:35:55;;;;;;;8.13;5.68;;;;;;;9.55;63.14;100534.53;677716;29;1174;-82
2022/11/28 01:36:17;;;;;;;8.45;5.72;;;;;;;9.57;63.10;100538.06;677661;29;1088;-81
2022/11/28 01:36:38;;;;;;;10.35;5.88;;;;;;;9.56;62.92;100531.09;682862;29;1250;-81
2022/11/28 01:36:59;;;;;;;10.35;5.80;;;;;;;9.66;63.08;100546.97;682870;29;1538;-81
2022/11/28 01:37:20;;;;;;;9.50;5.65;;;;;;;9.60;63.15;100538.13;680137;29;1149;-81
2022/11/28 01:37:40;;;;;;;7.00;5.40;;;;;;;9.56;63.12;100536.28;677769;29;1039;-81
2022/11/28 01:38:11;;;;;;;7.43;5.37;;;;;;;9.60;63.07;100543.34;675139;29;1104;-81
2022/11/28 01:38:33;;;;;;;6.20;5.18;;;;;;;9.54;63.05;100527.56;675110;29;910;-81
2022/11/28 01:38:54;;;;;;;6.90;5.75;;;;;;;9.52;62.95;100524.00;680204;28;1321;-82
2022/11/28 01:39:15;;;;;;;7.97;6.00;;;;;;;9.52;62.94;100524.00;677493;29;1280;-81
2022/11/28 01:39:36;;;;;;;7.70;6.00;;;;;;;9.51;63.35;100527.47;677698;29;804;-81
2022/11/28 01:39:57;;;;;;;7.43;5.80;;;;;;;9.54;63.20;100530.16;680367;29;879;-81
2022/11/28 01:40:17;;;;;;;6.50;5.30;;;;;;;9.53;63.23;100530.97;682809;29;1410;-81
2022/11/28 01:40:44;;;;;;;6.72;5.47;;;;;;;9.58;62.99;100542.44;685684;28;858;-81
2022/11/28 01:41:06;;;;;;;6.90;5.32;;;;;;;9.62;63.26;100537.28;682832;29;1120;-81
2022/11/28 01:41:27;;;;;;;6.68;5.20;;;;;;;9.57;63.44;100525.03;677690;29;1215;-81
2022/11/28 01:41:48;;;;;;;6.70;5.20;;;;;;;9.58;63.32;100525.91;677649;29;1968;-82
2022/11/28 01:42:15;;;;;;;6.97;5.60;;;;;;;9.57;62.94;100527.63;680159;29;1272;-82
2022/11/28 01:42:36;;;;;;;7.32;5.88;;;;;;;9.49;63.10;100518.72;680416;29;2043;-81
2022/11/28 01:42:57;;;;;;;6.75;5.53;;;;;;;9.50;63.05;100523.09;677677;29;1334;-82
2022/11/28 01:43:18;;;;;;;6.53;5.30;;;;;;;9.69;63.12;100526.19;674959;29;1268;-82
2022/11/28 01:44:04;;;;;;;6.25;5.10;;;;;;;9.85;62.53;100517.94;675213;29;772;-82